createdAt,value
2018-09-12T00:01:09.786Z,4.93
2018-09-12T00:03:38.228Z,5.10
2018-09-12T00:06:06.389Z,4.53
2018-09-12T00:08:35.373Z,4.87
2018-09-12T00:11:03.521Z,4.60
2018-09-12T00:13:32.853Z,4.60
2018-09-12T00:16:02.946Z,4.70
2018-09-12T00:18:31.354Z,5.20
2018-09-12T00:20:59.473Z,4.90
2018-09-12T00:23:27.627Z,4.70
2018-09-12T00:25:55.746Z,4.72
2018-09-12T00:28:24.469Z,4.67
2018-09-12T00:30:54.213Z,4.47
2018-09-12T00:33:22.338Z,5.17
2018-09-12T00:35:50.478Z,4.60
2018-09-12T00:38:18.638Z,4.87
2018-09-12T00:40:48.461Z,4.93
2018-09-12T00:43:16.650Z,4.50
2018-09-12T00:45:44.840Z,5.10
2018-09-12T00:48:12.985Z,4.03
2018-09-12T00:50:41.215Z,4.93
2018-09-12T00:53:09.310Z,4.60
2018-09-12T00:55:39.830Z,4.50
2018-09-12T00:58:07.953Z,4.40
2018-09-12T01:00:36.063Z,4.50
2018-09-12T01:03:04.174Z,5.03
2018-09-12T01:05:32.361Z,4.73
2018-09-12T01:08:00.524Z,4.50
2018-09-12T01:10:28.698Z,4.80
2018-09-12T01:12:56.837Z,4.27
2018-09-12T01:15:24.966Z,4.15
2018-09-12T01:17:53.196Z,4.40
2018-09-12T01:20:21.256Z,4.80
2018-09-12T01:22:49.367Z,5.07
2018-09-12T01:25:17.547Z,4.57
2018-09-12T01:27:50.047Z,4.70
2018-09-12T01:30:24.083Z,4.60
2018-09-12T01:32:53.915Z,4.63
2018-09-12T01:35:22.300Z,4.23
2018-09-12T01:37:50.939Z,5.00
2018-09-12T01:40:19.731Z,4.72
2018-09-12T01:42:53.450Z,4.30
2018-09-12T01:45:22.035Z,4.73
2018-09-12T01:47:50.149Z,4.60
2018-09-12T01:50:19.320Z,4.73
2018-09-12T01:52:47.905Z,4.80
2018-09-12T01:55:18.666Z,4.30
2018-09-12T01:57:47.036Z,4.10
2018-09-12T02:00:19.586Z,5.13
2018-09-12T02:02:48.795Z,4.93
2018-09-12T02:05:17.783Z,4.90
2018-09-12T02:07:45.879Z,4.70
2018-09-12T02:10:18.996Z,4.30
2018-09-12T02:12:47.739Z,5.00
2018-09-12T02:15:17.775Z,4.63
2018-09-12T02:17:47.812Z,4.83
2018-09-12T02:20:16.417Z,4.37
2018-09-12T02:22:45.989Z,4.90
2018-09-12T02:25:15.684Z,5.30
2018-09-12T02:27:44.229Z,5.43
2018-09-12T02:30:12.963Z,5.30
2018-09-12T02:32:41.466Z,4.60
2018-09-12T02:35:10.789Z,4.90
2018-09-12T02:37:42.120Z,5.60
2018-09-12T02:40:11.801Z,4.87
2018-09-12T02:42:40.038Z,4.67
2018-09-12T02:45:08.170Z,5.43
2018-09-12T02:47:37.951Z,5.10
2018-09-12T02:50:11.715Z,5.42
2018-09-12T02:52:39.972Z,5.70
2018-09-12T02:55:09.391Z,4.85
2018-09-12T02:57:37.490Z,5.27
2018-09-12T03:00:06.634Z,4.83
2018-09-12T03:02:37.435Z,5.00
2018-09-12T03:05:06.760Z,4.70
2018-09-12T03:07:35.038Z,5.37
2018-09-12T03:10:03.158Z,4.87
2018-09-12T03:12:31.308Z,6.00
2018-09-12T03:14:59.429Z,5.25
2018-09-12T03:17:29.669Z,5.10
2018-09-12T03:19:57.775Z,5.50
2018-09-12T03:22:25.862Z,4.83
2018-09-12T03:24:57.229Z,5.53
2018-09-12T03:27:26.725Z,5.30
2018-09-12T03:29:55.390Z,5.50
2018-09-12T03:32:23.522Z,5.97
2018-09-12T03:34:53.145Z,5.53
2018-09-12T03:37:21.227Z,6.50
2018-09-12T03:39:49.471Z,5.90
2018-09-12T03:42:18.224Z,5.80
2018-09-12T03:44:47.788Z,6.43
2018-09-12T03:47:16.683Z,6.30
2018-09-12T03:49:45.045Z,4.90
2018-09-12T03:52:15.816Z,5.90
2018-09-12T03:54:43.930Z,4.90
2018-09-12T03:57:12.956Z,4.67
2018-09-12T03:59:44.939Z,4.70
2018-09-12T04:02:13.037Z,4.90
2018-09-12T04:04:41.168Z,5.47
2018-09-12T04:07:11.521Z,5.10
2018-09-12T04:09:41.135Z,5.97
2018-09-12T04:12:09.253Z,5.80
2018-09-12T04:14:37.415Z,5.83
2018-09-12T04:17:05.844Z,5.70
2018-09-12T04:19:35.595Z,5.47
2018-09-12T04:22:04.920Z,5.90
2018-09-12T04:24:34.171Z,5.80
2018-09-12T04:27:03.143Z,5.62
2018-09-12T04:29:32.335Z,6.13
2018-09-12T04:32:00.984Z,6.57
2018-09-12T04:34:29.923Z,5.72
2018-09-12T04:36:58.267Z,6.17
2018-09-12T04:39:26.343Z,5.87
2018-09-12T04:41:54.809Z,6.70
2018-09-12T04:44:23.444Z,7.30
2018-09-12T04:46:51.544Z,7.00
2018-09-12T04:49:22.279Z,7.40
2018-09-12T04:51:53.849Z,8.25
2018-09-12T04:54:23.072Z,7.10
2018-09-12T04:56:52.330Z,7.57
2018-09-12T04:59:20.413Z,7.43
2018-09-12T05:01:48.662Z,7.90
2018-09-12T05:04:17.072Z,7.33
2018-09-12T05:06:45.228Z,7.53
2018-09-12T05:09:14.579Z,7.43
2018-09-12T05:11:43.838Z,7.30
2018-09-12T05:14:15.411Z,7.80
2018-09-12T05:16:45.478Z,8.47
2018-09-12T05:19:13.748Z,7.43
2018-09-12T05:21:41.878Z,8.33
2018-09-12T05:24:09.951Z,7.70
2018-09-12T05:26:40.684Z,8.50
2018-09-12T05:29:10.395Z,8.53
2018-09-12T05:31:38.680Z,8.20
2018-09-12T05:34:08.524Z,7.17
2018-09-12T05:36:37.713Z,8.00
2018-09-12T05:39:11.785Z,7.45
2018-09-12T05:41:41.090Z,8.10
2018-09-12T05:44:10.258Z,8.27
2018-09-12T05:46:38.372Z,8.17
2018-09-12T05:49:06.613Z,8.77
2018-09-12T05:51:36.016Z,8.77
2018-09-12T05:54:04.227Z,9.58
2018-09-12T05:56:32.551Z,9.03
2018-09-12T05:59:02.571Z,10.20
2018-09-12T06:01:30.651Z,9.80
2018-09-12T06:04:00.249Z,9.43
2018-09-12T06:06:31.375Z,9.23
2018-09-12T06:09:01.412Z,10.03
2018-09-12T06:11:29.765Z,9.43
2018-09-12T06:13:59.448Z,10.03
2018-09-12T06:16:28.729Z,9.27
2018-09-12T06:18:58.537Z,9.43
2018-09-12T06:21:26.932Z,8.83
2018-09-12T06:23:56.283Z,9.33
2018-09-12T06:26:24.853Z,10.08
2018-09-12T06:28:53.431Z,8.53
2018-09-12T06:31:21.547Z,9.63
2018-09-12T06:33:50.235Z,9.45
2018-09-12T06:36:24.203Z,9.30
2018-09-12T06:38:52.656Z,8.93
2018-09-12T06:41:21.336Z,9.07
2018-09-12T06:44:38.264Z,8.90
2018-09-12T06:47:08.223Z,8.07
2018-09-12T06:49:37.183Z,7.80
2018-09-12T06:52:06.431Z,9.30
2018-09-12T06:54:34.513Z,8.57
2018-09-12T06:57:04.348Z,8.30
2018-09-12T06:59:33.650Z,8.40
2018-09-12T07:02:03.083Z,8.23
2018-09-12T07:04:31.789Z,9.40
2018-09-12T07:07:00.224Z,8.50
2018-09-12T07:09:28.507Z,7.47
2018-09-12T07:11:57.252Z,8.00
2018-09-12T07:14:25.737Z,7.90
2018-09-12T07:16:54.256Z,8.03
2018-09-12T07:19:23.280Z,7.43
2018-09-12T07:21:53.234Z,7.30
2018-09-12T07:24:22.230Z,7.70
2018-09-12T07:31:49.906Z,7.33
2018-09-12T07:34:18.629Z,7.67
2018-09-12T07:36:47.643Z,7.90
2018-09-12T07:39:16.283Z,7.57
2018-09-12T07:41:44.457Z,8.33
2018-09-12T07:44:12.453Z,6.70
2018-09-12T07:46:40.574Z,7.37
2018-09-12T07:49:09.994Z,6.50
2018-09-12T07:51:38.015Z,6.62
2018-09-12T07:56:58.382Z,6.93
2018-09-12T07:59:26.601Z,6.30
2018-09-12T08:01:54.643Z,7.40
2018-09-12T08:04:22.995Z,7.27
2018-09-12T08:06:51.087Z,6.30
2018-09-12T08:09:20.320Z,6.33
2018-09-12T08:11:48.405Z,5.90
2018-09-12T08:14:16.443Z,6.70
2018-09-12T08:16:44.589Z,6.17
2018-09-12T08:19:12.708Z,5.97
2018-09-12T08:21:42.028Z,5.93
2018-09-12T08:24:10.206Z,5.20
2018-09-12T08:26:38.285Z,5.67
2018-09-12T08:29:08.522Z,5.97
2018-09-12T08:31:36.627Z,5.50
2018-09-12T08:34:04.803Z,5.17
2018-09-12T08:36:33.252Z,5.20
2018-09-12T08:39:01.719Z,5.83
2018-09-12T08:41:29.880Z,5.45
2018-09-12T08:43:58.081Z,5.62
2018-09-12T08:46:27.705Z,5.43
2018-09-12T08:48:55.815Z,6.37
2018-09-12T08:51:24.544Z,5.90
2018-09-12T08:53:55.256Z,6.22
2018-09-12T08:56:24.220Z,5.67
2018-09-12T08:58:53.432Z,5.67
2018-09-12T09:01:21.532Z,5.13
2018-09-12T09:03:51.900Z,5.57
2018-09-12T09:06:21.840Z,6.25
2018-09-12T09:08:51.984Z,5.83
2018-09-12T09:16:19.744Z,5.90
2018-09-12T09:18:48.280Z,6.20
2018-09-12T09:21:16.383Z,5.80
2018-09-12T09:23:45.044Z,6.20
2018-09-12T09:26:13.127Z,6.60
2018-09-12T09:28:41.318Z,4.33
2018-09-12T09:31:09.391Z,6.37
2018-09-12T09:33:38.008Z,5.90
2018-09-12T09:36:06.163Z,5.90
2018-09-12T09:38:34.285Z,6.30
2018-09-12T09:41:02.936Z,5.40
2018-09-12T09:43:32.371Z,5.95
2018-09-12T09:46:00.756Z,5.45
2018-09-12T09:48:30.037Z,5.23
2018-09-12T09:50:58.439Z,5.30
2018-09-12T09:53:27.180Z,6.40
2018-09-12T09:55:56.013Z,6.12
2018-09-12T09:58:25.009Z,5.20
2018-09-12T10:00:59.599Z,5.50
2018-09-12T10:03:35.115Z,5.37
2018-09-12T10:06:09.151Z,5.83
2018-09-12T10:08:42.653Z,5.20
2018-09-12T10:11:10.852Z,4.73
2018-09-12T10:13:39.302Z,4.60
2018-09-12T10:16:09.238Z,4.50
2018-09-12T10:18:38.514Z,5.35
2018-09-12T10:21:08.169Z,5.50
2018-09-12T10:23:37.274Z,5.23
2018-09-12T10:26:05.801Z,5.35
2018-09-12T10:28:35.202Z,4.85
2018-09-12T10:31:03.645Z,5.23
2018-09-12T10:33:31.954Z,4.80
2018-09-12T10:36:31.152Z,4.15
2018-09-12T10:38:59.569Z,4.50
2018-09-12T10:41:27.837Z,4.70
2018-09-12T10:43:56.568Z,5.30
2018-09-12T10:46:24.912Z,5.40
2018-09-12T10:48:53.540Z,5.30
2018-09-12T10:51:21.652Z,4.47
2018-09-12T10:53:49.863Z,4.90
2018-09-12T10:56:18.936Z,5.13
2018-09-12T10:58:49.371Z,4.60
2018-09-12T11:01:17.613Z,4.87
2018-09-12T11:03:46.171Z,4.90
2018-09-12T11:06:16.267Z,4.92
2018-09-12T11:08:45.309Z,5.00
2018-09-12T11:11:14.347Z,4.47
2018-09-12T11:13:42.532Z,4.90
2018-09-12T11:16:10.703Z,4.43
2018-09-12T11:18:39.846Z,4.12
2018-09-12T11:21:08.980Z,4.40
2018-09-12T11:23:37.192Z,4.93
2018-09-12T11:26:05.299Z,4.43
2018-09-12T11:28:33.649Z,4.80
2018-09-12T11:31:09.255Z,4.58
2018-09-12T11:33:47.106Z,4.47
2018-09-12T11:36:15.497Z,4.30
2018-09-12T11:38:44.434Z,4.20
2018-09-12T11:41:12.803Z,4.40
2018-09-12T11:43:41.030Z,3.67
2018-09-12T11:46:10.407Z,4.10
2018-09-12T11:48:38.625Z,3.87
2018-09-12T11:51:06.940Z,3.80
2018-09-12T11:53:36.068Z,3.90
2018-09-12T11:56:04.324Z,3.13
2018-09-12T11:58:32.517Z,3.63
2018-09-12T12:01:00.655Z,3.87
2018-09-12T12:03:30.944Z,4.30
2018-09-12T12:05:59.187Z,3.40
2018-09-12T12:08:27.272Z,3.27
2018-09-12T12:10:55.422Z,4.00
2018-09-12T12:13:23.799Z,3.57
2018-09-12T12:15:52.644Z,4.40
2018-09-12T12:18:21.592Z,3.80
2018-09-12T12:20:51.637Z,3.60
2018-09-12T12:23:19.897Z,3.60
2018-09-12T12:25:48.433Z,4.10
2018-09-12T12:28:18.624Z,4.00
2018-09-12T12:30:47.577Z,4.07
2018-09-12T12:33:16.941Z,3.70
2018-09-12T12:35:46.601Z,3.97
2018-09-12T12:38:14.819Z,3.73
2018-09-12T12:40:43.012Z,2.93
2018-09-12T12:43:12.250Z,3.30
2018-09-12T12:45:41.506Z,3.50
2018-09-12T12:48:09.735Z,3.35
2018-09-12T12:50:38.135Z,3.53
2018-09-12T12:53:06.467Z,3.20
2018-09-12T12:55:35.055Z,3.33
2018-09-12T12:58:03.206Z,2.75
2018-09-12T13:00:32.009Z,3.30
2018-09-12T13:03:02.218Z,2.75
2018-09-12T13:05:30.773Z,2.70
2018-09-12T13:07:59.213Z,3.03
2018-09-12T13:10:28.017Z,2.46
2018-09-12T13:13:00.938Z,2.90
2018-09-12T13:15:29.127Z,2.72
2018-09-12T13:17:57.405Z,2.63
2018-09-12T13:20:25.609Z,2.55
2018-09-12T13:22:53.828Z,2.95
2018-09-12T13:25:24.216Z,3.20
2018-09-12T13:27:53.210Z,2.75
2018-09-12T13:30:21.901Z,2.83
2018-09-12T13:32:50.009Z,2.87
2018-09-12T13:35:18.295Z,3.17
2018-09-12T13:37:46.483Z,3.05
2018-09-12T13:40:14.646Z,2.90
2018-09-12T13:42:43.854Z,2.42
2018-09-12T13:45:12.183Z,3.17
2018-09-12T13:47:40.299Z,2.35
2018-09-12T13:50:08.577Z,2.20
2018-09-12T13:52:37.165Z,2.53
2018-09-12T13:55:05.258Z,2.30
2018-09-12T13:57:33.505Z,2.47
2018-09-12T14:00:01.687Z,2.40
2018-09-12T14:02:30.045Z,3.08
2018-09-12T14:04:58.293Z,2.10
2018-09-12T14:07:26.387Z,2.70
2018-09-12T14:09:55.187Z,18.12
2018-09-12T14:12:23.526Z,2.42
2018-09-12T14:14:52.993Z,2.77
2018-09-12T14:17:22.225Z,2.72
2018-09-12T14:19:51.704Z,1.82
2018-09-12T14:22:19.999Z,3.10
2018-09-12T14:24:48.323Z,2.30
2018-09-12T14:27:16.593Z,2.12
2018-09-12T14:29:45.083Z,2.08
2018-09-12T14:32:13.957Z,2.58
2018-09-12T14:34:42.010Z,2.30
2018-09-12T14:37:10.767Z,2.87
2018-09-12T14:39:39.337Z,2.37
2018-09-12T14:42:07.563Z,2.22
2018-09-12T14:44:35.703Z,2.00
2018-09-12T14:47:04.608Z,2.60
2018-09-12T14:49:32.857Z,2.50
2018-09-12T14:52:01.162Z,2.60
2018-09-12T14:54:29.252Z,2.27
2018-09-12T14:56:57.412Z,2.22
2018-09-12T14:59:25.584Z,2.33
2018-09-12T15:01:53.891Z,2.67
2018-09-12T15:04:23.693Z,2.60
2018-09-12T15:06:52.273Z,2.30
2018-09-12T15:09:21.373Z,2.22
2018-09-12T15:11:51.944Z,2.20
2018-09-12T15:14:20.124Z,2.42
2018-09-12T15:16:48.253Z,2.60
2018-09-12T15:19:16.500Z,2.20
2018-09-12T15:21:45.682Z,2.42
2018-09-12T15:24:14.049Z,3.05
2018-09-12T15:26:43.193Z,3.05
2018-09-12T15:29:11.355Z,2.60
2018-09-12T15:31:42.360Z,2.15
2018-09-12T15:34:10.645Z,2.30
2018-09-12T15:39:31.612Z,2.00
2018-09-12T15:41:59.721Z,2.20
2018-09-12T15:44:28.053Z,2.27
2018-09-12T15:46:56.662Z,2.37
2018-09-12T15:49:25.121Z,1.95
2018-09-12T15:51:53.367Z,2.62
2018-09-12T15:54:23.848Z,2.15
2018-09-12T15:56:52.567Z,2.32
2018-09-12T15:59:21.005Z,2.10
2018-09-12T16:01:49.229Z,1.57
2018-09-12T16:04:19.914Z,2.20
2018-09-12T16:06:48.337Z,2.20
2018-09-12T16:09:17.819Z,2.27
2018-09-12T16:11:46.260Z,1.98
2018-09-12T16:14:14.370Z,2.10
2018-09-12T16:16:42.528Z,1.87
2018-09-12T16:19:10.795Z,1.73
2018-09-12T16:21:38.941Z,2.25
2018-09-12T16:24:07.342Z,1.70
2018-09-12T16:26:35.535Z,1.83
2018-09-12T16:29:04.041Z,2.03
2018-09-12T16:31:33.709Z,1.85
2018-09-12T16:34:01.922Z,1.73
2018-09-12T16:36:31.038Z,2.00
2018-09-12T16:38:59.680Z,1.90
2018-09-12T16:41:28.421Z,1.75
2018-09-12T16:43:57.130Z,1.80
2018-09-12T16:46:25.497Z,1.97
2018-09-12T16:48:54.527Z,2.00
2018-09-12T16:51:22.804Z,1.90
2018-09-12T16:53:53.787Z,1.73
2018-09-12T17:01:16.867Z,2.37
2018-09-12T17:03:45.726Z,2.60
2018-09-12T17:06:13.871Z,2.20
2018-09-12T17:08:42.043Z,2.03
2018-09-12T17:11:10.240Z,2.43
2018-09-12T17:13:38.417Z,2.30
2018-09-12T17:16:06.570Z,2.22
2018-09-12T17:18:34.906Z,2.15
2018-09-12T17:21:03.070Z,2.20
2018-09-12T17:23:31.580Z,1.90
2018-09-12T17:25:59.728Z,2.40
2018-09-12T17:28:27.886Z,2.55
2018-09-12T17:30:56.006Z,2.43
2018-09-12T17:33:24.138Z,1.97
2018-09-12T17:35:54.086Z,3.08
2018-09-12T17:38:23.333Z,2.75
2018-09-12T17:40:51.886Z,3.10
2018-09-12T17:43:20.054Z,2.77
2018-09-12T17:45:48.234Z,11.57
2018-09-12T17:48:16.439Z,14.30
2018-09-12T17:50:44.619Z,4.00
2018-09-12T17:53:12.763Z,3.30
2018-09-12T17:55:40.887Z,2.73
2018-09-12T17:58:10.122Z,2.63
2018-09-12T18:00:38.427Z,2.55
2018-09-12T18:03:06.713Z,2.87
2018-09-12T18:05:34.983Z,2.63
2018-09-12T18:08:03.562Z,3.50
2018-09-12T18:10:32.128Z,3.10
2018-09-12T18:13:00.319Z,3.25
2018-09-12T18:15:28.635Z,3.08
2018-09-12T18:17:56.795Z,3.60
2018-09-12T18:20:24.940Z,3.50
2018-09-12T18:22:53.087Z,3.20
2018-09-12T18:25:21.505Z,3.20
2018-09-12T18:27:49.873Z,2.80
2018-09-12T18:30:18.363Z,3.57
2018-09-12T18:32:46.438Z,3.37
2018-09-12T18:35:14.578Z,4.10
2018-09-12T18:37:42.681Z,4.30
2018-09-12T18:40:10.840Z,3.37
2018-09-12T18:42:38.947Z,3.70
2018-09-12T18:45:07.048Z,3.50
2018-09-12T18:47:35.191Z,5.35
2018-09-12T18:50:03.343Z,3.70
2018-09-12T18:52:31.461Z,4.80
2018-09-12T18:54:59.644Z,4.60
2018-09-12T18:57:27.842Z,3.40
2018-09-12T18:59:56.159Z,3.60
2018-09-12T19:02:24.372Z,3.57
2018-09-12T19:04:53.504Z,3.17
2018-09-12T19:07:22.622Z,3.50
2018-09-12T19:09:50.916Z,3.20
2018-09-12T19:12:19.054Z,3.80
2018-09-12T19:14:48.296Z,4.13
2018-09-12T19:17:16.490Z,3.72
2018-09-12T19:19:44.981Z,3.30
2018-09-12T19:22:13.160Z,3.60
2018-09-12T19:24:41.373Z,4.63
2018-09-12T19:27:09.655Z,4.90
2018-09-12T19:29:38.642Z,4.30
2018-09-12T19:32:06.914Z,5.80
2018-09-12T19:34:35.519Z,5.33
2018-09-12T19:37:04.439Z,4.83
2018-09-12T19:39:32.859Z,4.20
2018-09-12T19:42:01.074Z,5.13
2018-09-12T19:44:29.318Z,4.03
2018-09-12T19:46:57.503Z,3.90
2018-09-12T19:49:25.691Z,3.77
2018-09-12T19:51:59.119Z,3.40
2018-09-12T19:54:27.450Z,3.37
2018-09-12T19:56:55.899Z,3.43
2018-09-12T19:59:24.255Z,3.63
2018-09-12T20:01:53.518Z,3.57
2018-09-12T20:04:22.051Z,3.60
2018-09-12T20:06:50.505Z,3.53
2018-09-12T20:09:18.634Z,3.63
2018-09-12T20:11:46.755Z,3.33
2018-09-12T20:14:15.001Z,6.27
2018-09-12T20:16:43.117Z,8.10
2018-09-12T20:19:14.373Z,8.30
2018-09-12T20:21:43.364Z,9.33
2018-09-12T20:24:11.727Z,10.58
2018-09-12T20:26:39.970Z,11.18
2018-09-12T20:29:08.079Z,14.10
2018-09-12T20:31:36.227Z,13.75
2018-09-12T20:34:06.768Z,12.15
2018-09-12T20:36:34.871Z,11.33
2018-09-12T20:39:03.046Z,7.70
2018-09-12T20:41:31.159Z,5.73
2018-09-12T20:43:59.961Z,5.70
2018-09-12T20:46:28.206Z,5.47
2018-09-12T20:48:56.340Z,4.93
2018-09-12T20:51:25.165Z,4.87
2018-09-12T20:53:53.826Z,4.80
2018-09-12T20:56:22.603Z,4.23
2018-09-12T20:58:50.979Z,4.47
2018-09-12T21:01:19.283Z,4.27
2018-09-12T21:03:47.536Z,4.10
2018-09-12T21:06:15.853Z,4.63
2018-09-12T21:08:44.089Z,5.30
2018-09-12T21:11:12.217Z,5.20
2018-09-12T21:13:40.698Z,6.37
2018-09-12T21:16:09.449Z,6.07
2018-09-12T21:18:37.581Z,6.57
2018-09-12T21:21:05.765Z,6.78
2018-09-12T21:23:34.050Z,6.40
2018-09-12T21:26:02.461Z,6.30
2018-09-12T21:28:30.543Z,6.75
2018-09-12T21:30:58.651Z,8.58
2018-09-12T21:33:28.352Z,7.20
2018-09-12T21:35:56.552Z,8.10
2018-09-12T21:38:25.426Z,8.97
2018-09-12T21:40:54.114Z,9.07
2018-09-12T21:43:22.816Z,9.60
2018-09-12T21:45:51.305Z,9.50
2018-09-12T21:48:19.615Z,8.33
2018-09-12T21:50:47.698Z,9.00
2018-09-12T21:53:15.916Z,10.00
2018-09-12T21:55:44.225Z,8.70
2018-09-12T21:58:14.079Z,8.70
2018-09-12T22:00:42.201Z,9.27
2018-09-12T22:03:10.329Z,10.80
2018-09-12T22:05:39.342Z,10.98
2018-09-12T22:08:08.154Z,9.90
2018-09-12T22:10:36.806Z,10.20
2018-09-12T22:13:05.088Z,10.07
2018-09-12T22:15:33.217Z,9.85
2018-09-12T22:18:01.381Z,11.00
2018-09-12T22:20:29.477Z,11.20
2018-09-12T22:22:58.488Z,11.80
2018-09-12T22:25:26.676Z,10.50
2018-09-12T22:27:56.611Z,11.20
2018-09-12T22:30:25.448Z,10.95
2018-09-12T22:32:54.971Z,11.20
2018-09-12T22:35:23.381Z,11.10
2018-09-12T22:37:51.538Z,11.53
2018-09-12T22:40:19.756Z,11.17
2018-09-12T22:42:47.895Z,11.40
2018-09-12T22:45:16.083Z,12.10
2018-09-12T22:47:44.399Z,11.30
2018-09-12T22:50:12.584Z,10.53
2018-09-12T22:52:41.945Z,11.15
2018-09-12T22:55:12.328Z,11.55
2018-09-12T22:57:40.579Z,10.80
2018-09-12T23:00:08.969Z,11.43
2018-09-12T23:02:37.398Z,10.90
2018-09-12T23:05:05.786Z,10.53
2018-09-12T23:07:35.290Z,9.68
2018-09-12T23:10:03.368Z,9.80
2018-09-12T23:12:31.594Z,10.10
2018-09-12T23:14:59.715Z,9.95
2018-09-12T23:17:28.064Z,9.63
2018-09-12T23:19:57.671Z,9.30
2018-09-12T23:22:26.107Z,9.90
2018-09-12T23:24:55.297Z,10.00
2018-09-12T23:27:24.266Z,9.60
2018-09-12T23:29:54.373Z,9.70
2018-09-12T23:32:22.858Z,9.27
2018-09-12T23:34:51.027Z,9.20
2018-09-12T23:37:20.787Z,9.97
2018-09-12T23:39:49.059Z,8.93
2018-09-12T23:42:17.343Z,9.20
2018-09-12T23:44:46.529Z,8.97
2018-09-12T23:47:14.705Z,9.40
2018-09-12T23:49:42.803Z,9.00
2018-09-12T23:52:11.146Z,9.30
2018-09-12T23:54:39.278Z,8.87
2018-09-12T23:57:07.404Z,8.47
2018-09-12T23:59:35.695Z,9.30
